Time,TemperatureF,DewpointF,PressureIn,WindDirection,WindDirectionDegrees,WindSpeedMPH,WindSpeedGustMPH,Humidity,HourlyPrecipIn,Conditions,Clouds,dailyrainin,SoftwareType,DateUTC
2013-09-15 00:03:00,47.6,46.0,30.10,SE,143,0.0,-999.0,95,-99.99,,,0.00,weatherlink.com 1.10,2013-09-15 04:03:00,
2013-09-15 00:18:00,47.2,46.0,30.10,SE,143,0.0,-999.0,95,-99.99,,,0.00,weatherlink.com 1.10,2013-09-15 04:18:00,
2013-09-15 00:34:00,46.9,46.0,30.10,SE,143,0.0,-999.0,95,-99.99,,,0.00,weatherlink.com 1.10,2013-09-15 04:34:00,
2013-09-15 00:49:00,46.6,46.0,30.10,SE,143,0.0,-999.0,96,-99.99,,,0.00,weatherlink.com 1.10,2013-09-15 04:49:00,
2013-09-15 01:04:00,46.3,45.0,30.11,SE,143,0.0,-999.0,96,-99.99,,,0.00,weatherlink.com 1.10,2013-09-15 05:04:00,
2013-09-15 01:19:00,46.1,45.0,30.11,SE,143,0.0,-999.0,96,-99.99,,,0.00,weatherlink.com 1.10,2013-09-15 05:19:00,
2013-09-15 01:34:00,45.7,45.0,30.11,SE,143,0.0,-999.0,96,-99.99,,,0.00,weatherlink.com 1.10,2013-09-15 05:34:00,
2013-09-15 01:49:00,45.4,44.0,30.11,SE,143,0.0,-999.0,96,-99.99,,,0.00,weatherlink.com 1.10,2013-09-15 05:49:00,
2013-09-15 02:04:00,45.3,44.0,30.12,SE,143,0.0,-999.0,96,-99.99,,,0.00,weatherlink.com 1.10,2013-09-15 06:04:00,
2013-09-15 02:19:00,45.2,44.0,30.12,SE,143,0.0,-999.0,96,-99.99,,,0.00,weatherlink.com 1.10,2013-09-15 06:19:00,
2013-09-15 02:34:00,45.2,44.0,30.12,SE,143,0.0,-999.0,96,-99.99,,,0.00,weatherlink.com 1.10,2013-09-15 06:34:00,
2013-09-15 02:49:00,45.0,44.0,30.12,SE,143,0.0,-999.0,96,-99.99,,,0.00,weatherlink.com 1.10,2013-09-15 06:49:00,
2013-09-15 03:04:00,44.6,44.0,30.11,SE,143,0.0,-999.0,96,-99.99,,,0.00,weatherlink.com 1.10,2013-09-15 07:04:00,
2013-09-15 03:19:00,44.4,43.0,30.12,SE,143,0.0,-999.0,96,-99.99,,,0.00,weatherlink.com 1.10,2013-09-15 07:19:00,
2013-09-15 03:34:00,44.6,44.0,30.13,SE,143,0.0,-999.0,96,-99.99,,,0.00,weatherlink.com 1.10,2013-09-15 07:34:00,
2013-09-15 03:49:00,44.2,43.0,30.13,SE,143,0.0,-999.0,96,-99.99,,,0.00,weatherlink.com 1.10,2013-09-15 07:49:00,
2013-09-15 04:04:00,43.7,43.0,30.14,SE,143,0.0,-999.0,96,-99.99,,,0.00,weatherlink.com 1.10,2013-09-15 08:04:00,
2013-09-15 04:19:00,43.5,43.0,30.14,SE,143,0.0,-999.0,96,-99.99,,,0.00,weatherlink.com 1.10,2013-09-15 08:19:00,
2013-09-15 04:34:00,43.4,43.0,30.15,SE,143,0.0,-999.0,97,-99.99,,,0.00,weatherlink.com 1.10,2013-09-15 08:34:00,
2013-09-15 04:49:00,43.1,42.0,30.15,SE,143,0.0,-999.0,96,-99.99,,,0.00,weatherlink.com 1.10,2013-09-15 08:49:00,
2013-09-15 05:04:00,42.7,42.0,30.15,SE,143,0.0,-999.0,96,-99.99,,,0.00,weatherlink.com 1.10,2013-09-15 09:04:00,
2013-09-15 05:19:00,42.4,41.0,30.15,SE,143,0.0,-999.0,96,-99.99,,,0.00,weatherlink.com 1.10,2013-09-15 09:19:00,
2013-09-15 05:34:00,42.1,41.0,30.16,SE,143,0.0,-999.0,96,-99.99,,,0.00,weatherlink.com 1.10,2013-09-15 09:34:00,
2013-09-15 05:49:00,42.1,41.0,30.16,SE,143,0.0,-999.0,96,-99.99,,,0.00,weatherlink.com 1.10,2013-09-15 09:49:00,
2013-09-15 06:04:00,42.0,41.0,30.17,SE,143,0.0,-999.0,97,-99.99,,,0.00,weatherlink.com 1.10,2013-09-15 10:04:00,
2013-09-15 06:19:00,42.2,41.0,30.18,SE,143,0.0,-999.0,97,-99.99,,,0.00,weatherlink.com 1.10,2013-09-15 10:19:00,
2013-09-15 06:34:00,42.2,41.0,30.18,SE,143,0.0,-999.0,97,-99.99,,,0.00,weatherlink.com 1.10,2013-09-15 10:34:00,
2013-09-15 06:49:00,42.7,42.0,30.18,SE,143,0.0,-999.0,97,-99.99,,,0.00,weatherlink.com 1.10,2013-09-15 10:49:00,
2013-09-15 07:04:00,43.0,42.0,30.18,SE,143,0.0,-999.0,97,-99.99,,,0.00,weatherlink.com 1.10,2013-09-15 11:04:00,
2013-09-15 07:19:00,42.9,42.0,30.18,SE,143,0.0,-999.0,97,-99.99,,,0.00,weatherlink.com 1.10,2013-09-15 11:19:00,
2013-09-15 07:34:00,43.1,42.0,30.19,SE,143,0.0,-999.0,97,-99.99,,,0.00,weatherlink.com 1.10,2013-09-15 11:34:00,
2013-09-15 07:49:00,43.7,43.0,30.19,SE,143,0.0,-999.0,97,-99.99,,,0.00,weatherlink.com 1.10,2013-09-15 11:49:00,
2013-09-15 08:04:00,44.7,44.0,30.18,SE,143,0.0,-999.0,98,-99.99,,,0.00,weatherlink.com 1.10,2013-09-15 12:04:00,
2013-09-15 08:19:00,46.1,46.0,30.18,SE,143,0.0,-999.0,98,-99.99,,,0.00,weatherlink.com 1.10,2013-09-15 12:19:00,
2013-09-15 08:34:00,50.3,50.0,30.18,SE,143,0.0,-999.0,98,-99.99,,,0.00,weatherlink.com 1.10,2013-09-15 12:34:00,
2013-09-15 08:49:00,52.6,52.0,30.19,SE,143,0.0,-999.0,98,-99.99,,,0.00,weatherlink.com 1.10,2013-09-15 12:49:00,
2013-09-15 09:04:00,54.0,54.0,30.19,SE,143,0.0,-999.0,98,-99.99,,,0.00,weatherlink.com 1.10,2013-09-15 13:04:00,
2013-09-15 09:19:00,57.1,56.0,30.19,SE,143,0.0,-999.0,95,-99.99,,,0.00,weatherlink.com 1.10,2013-09-15 13:19:00,
2013-09-15 09:35:00,60.4,56.0,30.20,ESE,105,0.0,-999.0,85,-99.99,,,0.00,weatherlink.com 1.10,2013-09-15 13:35:00,
2013-09-15 09:50:00,62.5,55.0,30.20,ESE,104,0.0,-999.0,75,-99.99,,,0.00,weatherlink.com 1.10,2013-09-15 13:50:00,
2013-09-15 10:05:00,63.0,51.0,30.20,SE,142,0.0,-999.0,65,-99.99,,,0.00,weatherlink.com 1.10,2013-09-15 14:05:00,
2013-09-15 10:20:00,64.3,51.0,30.20,ESE,109,1.0,-999.0,63,-99.99,,,0.00,weatherlink.com 1.10,2013-09-15 14:20:00,
2013-09-15 10:35:00,64.6,52.0,30.20,WNW,290,0.0,-999.0,64,-99.99,,,0.00,weatherlink.com 1.10,2013-09-15 14:35:00,
2013-09-15 10:50:00,66.1,52.0,30.20,ESE,114,0.0,-999.0,61,-99.99,,,0.00,weatherlink.com 1.10,2013-09-15 14:50:00,
2013-09-15 11:05:00,66.7,51.0,30.20,ESE,103,0.0,-999.0,58,-99.99,,,0.00,weatherlink.com 1.10,2013-09-15 15:05:00,
2013-09-15 11:20:00,66.3,51.0,30.19,ESE,103,1.0,-999.0,58,-99.99,,,0.00,weatherlink.com 1.10,2013-09-15 15:20:00,
2013-09-15 11:35:00,67.1,51.0,30.18,East,95,1.0,-999.0,56,-99.99,,,0.00,weatherlink.com 1.10,2013-09-15 15:35:00,
2013-09-15 11:50:00,67.4,50.0,30.18,NNE,22,0.0,-999.0,53,-99.99,,,0.00,weatherlink.com 1.10,2013-09-15 15:50:00,
2013-09-15 12:05:00,68.3,52.0,30.18,North,11,0.0,-999.0,57,-99.99,,,0.00,weatherlink.com 1.10,2013-09-15 16:05:00,
2013-09-15 12:20:00,68.6,51.0,30.17,SW,234,0.0,-999.0,53,-99.99,,,0.00,weatherlink.com 1.10,2013-09-15 16:20:00,
2013-09-15 12:35:00,70.5,51.0,30.17,SSE,167,0.0,-999.0,51,-99.99,,,0.00,weatherlink.com 1.10,2013-09-15 16:35:00,
2013-09-15 12:50:00,69.3,49.0,30.17,SE,130,0.0,-999.0,49,-99.99,,,0.00,weatherlink.com 1.10,2013-09-15 16:50:00,
2013-09-15 13:05:00,69.2,50.0,30.16,West,259,0.0,-999.0,51,-99.99,,,0.00,weatherlink.com 1.10,2013-09-15 17:05:00,
2013-09-15 13:20:00,69.2,49.0,30.15,ESE,123,0.0,-999.0,48,-99.99,,,0.00,weatherlink.com 1.10,2013-09-15 17:20:00,
2013-09-15 13:35:00,69.8,47.0,30.15,South,175,0.0,-999.0,45,-99.99,,,0.00,weatherlink.com 1.10,2013-09-15 17:35:00,
2013-09-15 13:50:00,70.4,48.0,30.15,ESE,119,0.0,-999.0,45,-99.99,,,0.00,weatherlink.com 1.10,2013-09-15 17:50:00,
2013-09-15 14:05:00,70.1,49.0,30.14,SE,140,0.0,-999.0,48,-99.99,,,0.00,weatherlink.com 1.10,2013-09-15 18:05:00,
2013-09-15 14:20:00,69.9,50.0,30.13,ESE,112,4.0,-999.0,49,-99.99,,,0.00,weatherlink.com 1.10,2013-09-15 18:20:00,
2013-09-15 14:35:00,69.4,51.0,30.13,ENE,76,0.0,-999.0,53,-99.99,,,0.00,weatherlink.com 1.10,2013-09-15 18:35:00,
2013-09-15 14:50:00,71.0,54.0,30.13,ESE,105,0.0,-999.0,56,-99.99,,,0.00,weatherlink.com 1.10,2013-09-15 18:50:00,
2013-09-15 15:05:00,70.8,51.0,30.12,East,95,0.0,-999.0,50,-99.99,,,0.00,weatherlink.com 1.10,2013-09-15 19:05:00,
2013-09-15 15:20:00,70.7,49.0,30.11,NE,49,2.0,-999.0,46,-99.99,,,0.00,weatherlink.com 1.10,2013-09-15 19:20:00,
2013-09-15 15:35:00,70.1,48.0,30.10,NW,311,1.0,-999.0,45,-99.99,,,0.00,weatherlink.com 1.10,2013-09-15 19:35:00,
2013-09-15 15:50:00,68.9,48.0,30.10,ESE,102,0.0,-999.0,48,-99.99,,,0.00,weatherlink.com 1.10,2013-09-15 19:50:00,
2013-09-15 16:05:00,67.9,49.0,30.10,East,89,1.0,-999.0,51,-99.99,,,0.00,weatherlink.com 1.10,2013-09-15 20:05:00,
2013-09-15 16:20:00,67.3,50.0,30.11,NE,40,0.0,-999.0,54,-99.99,,,0.00,weatherlink.com 1.10,2013-09-15 20:20:00,
2013-09-15 16:35:00,67.1,50.0,30.11,ENE,76,0.0,-999.0,55,-99.99,,,0.00,weatherlink.com 1.10,2013-09-15 20:35:00,
2013-09-15 16:50:00,66.9,49.0,30.10,ENE,71,0.0,-999.0,53,-99.99,,,0.00,weatherlink.com 1.10,2013-09-15 20:50:00,
2013-09-15 17:05:00,66.1,52.0,30.10,NE,49,0.0,-999.0,61,-99.99,,,0.00,weatherlink.com 1.10,2013-09-15 21:05:00,
2013-09-15 17:20:00,65.0,53.0,30.10,NE,53,0.0,-999.0,66,-99.99,,,0.00,weatherlink.com 1.10,2013-09-15 21:20:00,
2013-09-15 17:35:00,64.6,55.0,30.10,NE,53,0.0,-999.0,71,-99.99,,,0.00,weatherlink.com 1.10,2013-09-15 21:35:00,
2013-09-15 17:50:00,64.1,56.0,30.10,NE,53,0.0,-999.0,74,-99.99,,,0.00,weatherlink.com 1.10,2013-09-15 21:50:00,
2013-09-15 18:05:00,63.2,56.0,30.10,NE,53,0.0,-999.0,77,-99.99,,,0.00,weatherlink.com 1.10,2013-09-15 22:05:00,
2013-09-15 18:20:00,61.9,55.0,30.09,NE,53,0.0,-999.0,79,-99.99,,,0.00,weatherlink.com 1.10,2013-09-15 22:20:00,
2013-09-15 18:35:00,60.7,55.0,30.10,NE,53,0.0,-999.0,81,-99.99,,,0.00,weatherlink.com 1.10,2013-09-15 22:35:00,
2013-09-15 18:50:00,59.9,54.0,30.10,NE,53,0.0,-999.0,82,-99.99,,,0.00,weatherlink.com 1.10,2013-09-15 22:50:00,
2013-09-15 19:05:00,59.0,54.0,30.09,NE,53,0.0,-999.0,83,-99.99,,,0.00,weatherlink.com 1.10,2013-09-15 23:05:00,
2013-09-15 19:20:00,57.9,54.0,30.09,NE,53,0.0,-999.0,85,-99.99,,,0.00,weatherlink.com 1.10,2013-09-15 23:20:00,
2013-09-15 19:35:00,57.0,53.0,30.09,NE,53,0.0,-999.0,86,-99.99,,,0.00,weatherlink.com 1.10,2013-09-15 23:35:00,
2013-09-15 19:50:00,56.2,53.0,30.10,NE,53,0.0,-999.0,88,-99.99,,,0.00,weatherlink.com 1.10,2013-09-15 23:50:00,
2013-09-15 20:05:00,55.6,53.0,30.09,NE,53,0.0,-999.0,89,-99.99,,,0.00,weatherlink.com 1.10,2013-09-16 00:05:00,
2013-09-15 20:20:00,55.4,53.0,30.10,NE,53,0.0,-999.0,90,-99.99,,,0.00,weatherlink.com 1.10,2013-09-16 00:20:00,
2013-09-15 20:35:00,55.5,53.0,30.10,NE,53,0.0,-999.0,90,-99.99,,,0.00,weatherlink.com 1.10,2013-09-16 00:35:00,
2013-09-15 20:50:00,55.9,52.0,30.10,NE,53,0.0,-999.0,88,-99.99,,,0.00,weatherlink.com 1.10,2013-09-16 00:50:00,
2013-09-15 21:05:00,56.3,52.0,30.10,NE,53,0.0,-999.0,86,-99.99,,,0.00,weatherlink.com 1.10,2013-09-16 01:05:00,
2013-09-15 21:20:00,56.5,52.0,30.10,NE,53,0.0,-999.0,86,-99.99,,,0.00,weatherlink.com 1.10,2013-09-16 01:20:00,
2013-09-15 21:35:00,56.6,52.0,30.10,NE,53,0.0,-999.0,85,-99.99,,,0.00,weatherlink.com 1.10,2013-09-16 01:35:00,
2013-09-15 21:50:00,56.5,52.0,30.10,NE,53,0.0,-999.0,86,-99.99,,,0.00,weatherlink.com 1.10,2013-09-16 01:50:00,
2013-09-15 22:05:00,56.2,52.0,30.09,NE,53,0.0,-999.0,87,-99.99,,,0.00,weatherlink.com 1.10,2013-09-16 02:05:00,
2013-09-15 22:20:00,55.6,52.0,30.09,NE,53,0.0,-999.0,87,-99.99,,,0.00,weatherlink.com 1.10,2013-09-16 02:20:00,
2013-09-15 22:35:00,55.0,52.0,30.09,NE,53,0.0,-999.0,88,-99.99,,,0.00,weatherlink.com 1.10,2013-09-16 02:35:00,
2013-09-15 22:50:00,54.5,51.0,30.09,NE,53,0.0,-999.0,89,-99.99,,,0.00,weatherlink.com 1.10,2013-09-16 02:50:00,
2013-09-15 23:05:00,54.1,51.0,30.10,NE,53,0.0,-999.0,90,-99.99,,,0.00,weatherlink.com 1.10,2013-09-16 03:05:00,
2013-09-15 23:20:00,53.7,51.0,30.09,NE,53,0.0,-999.0,90,-99.99,,,0.00,weatherlink.com 1.10,2013-09-16 03:20:00,
2013-09-15 23:36:00,53.6,51.0,30.09,NE,53,0.0,-999.0,91,-99.99,,,0.00,weatherlink.com 1.10,2013-09-16 03:36:00,
2013-09-15 23:51:00,53.4,51.0,30.08,NE,53,0.0,-999.0,92,-99.99,,,0.00,weatherlink.com 1.10,2013-09-16 03:51:00,